createdAt,value
2023-01-20T00:01:39.984Z,6.95
2023-01-20T00:04:07.601Z,7.35
2023-01-20T00:06:35.327Z,9.15
2023-01-20T00:09:05.298Z,9.10
2023-01-20T00:11:33.165Z,8.58
2023-01-20T00:14:02.178Z,6.30
2023-01-20T00:16:31.277Z,5.92
2023-01-20T00:18:59.269Z,5.00
2023-01-20T00:21:27.061Z,3.98
2023-01-20T00:23:54.922Z,4.05
2023-01-20T00:26:24.560Z,6.58
2023-01-20T00:28:59.540Z,8.50
2023-01-20T00:31:30.290Z,9.68
2023-01-20T00:34:00.407Z,9.48
2023-01-20T00:36:33.458Z,7.85
2023-01-20T00:39:02.723Z,7.47
2023-01-20T00:41:30.393Z,8.40
2023-01-20T00:43:57.821Z,8.60
2023-01-20T00:46:25.405Z,8.03
2023-01-20T00:48:53.114Z,5.37
2023-01-20T00:51:21.091Z,5.00
2023-01-20T00:53:49.003Z,6.70
2023-01-20T00:56:16.708Z,8.03
2023-01-20T00:58:45.000Z,8.80
2023-01-20T01:01:13.303Z,8.85
2023-01-20T01:03:41.009Z,9.03
2023-01-20T01:06:12.792Z,8.38
2023-01-20T01:08:40.995Z,7.53
2023-01-20T01:11:10.293Z,4.62
2023-01-20T01:13:38.770Z,3.77
2023-01-20T01:16:12.832Z,3.45
2023-01-20T01:18:41.820Z,3.20
2023-01-20T01:21:13.131Z,3.47
2023-01-20T01:23:40.637Z,3.05
2023-01-20T01:26:09.917Z,3.10
2023-01-20T01:28:37.493Z,2.50
2023-01-20T01:31:07.564Z,2.70
2023-01-20T01:33:35.957Z,2.95
2023-01-20T01:36:05.417Z,2.95
2023-01-20T01:38:32.961Z,2.50
2023-01-20T01:41:01.389Z,2.72
2023-01-20T01:43:36.331Z,4.40
2023-01-20T01:46:05.620Z,3.72
2023-01-20T01:48:43.635Z,3.72
2023-01-20T01:51:19.253Z,2.58
2023-01-20T01:53:53.282Z,2.08
2023-01-20T01:56:22.796Z,2.08
2023-01-20T01:58:54.592Z,2.52
2023-01-20T02:01:22.813Z,2.20
2023-01-20T02:04:05.129Z,2.08
2023-01-20T02:06:35.691Z,1.98
2023-01-20T02:09:07.057Z,2.45
2023-01-20T02:11:57.728Z,1.82
2023-01-20T02:14:38.074Z,2.25
2023-01-20T02:17:17.460Z,2.08
2023-01-20T02:20:35.645Z,2.00
2023-01-20T02:23:23.862Z,2.10
2023-01-20T02:26:18.051Z,3.35
2023-01-20T02:29:21.122Z,6.90
2023-01-20T02:32:21.180Z,7.33
2023-01-20T02:35:18.210Z,6.15
2023-01-20T02:38:10.089Z,4.90
2023-01-20T02:41:00.257Z,4.67
2023-01-20T02:43:59.461Z,4.05
2023-01-20T02:46:42.837Z,3.00
2023-01-20T02:49:18.993Z,3.75
2023-01-20T02:52:04.023Z,3.30
2023-01-20T02:54:36.045Z,2.00
2023-01-20T02:57:08.080Z,5.95
2023-01-20T02:59:41.143Z,2.87
2023-01-20T03:02:14.205Z,1.52
2023-01-20T03:04:52.837Z,1.57
2023-01-20T03:07:23.953Z,1.85
2023-01-20T03:09:55.577Z,3.08
2023-01-20T03:12:37.924Z,2.42
2023-01-20T03:15:07.465Z,1.70
2023-01-20T03:17:35.571Z,1.98
2023-01-20T03:20:03.438Z,8.13
2023-01-20T03:22:31.731Z,8.53
2023-01-20T03:24:59.854Z,5.70
2023-01-20T03:27:27.477Z,3.60
2023-01-20T03:29:55.124Z,3.02
2023-01-20T03:32:25.716Z,3.30
2023-01-20T03:34:55.519Z,1.92
2023-01-20T03:37:23.479Z,2.27
2023-01-20T03:39:51.996Z,3.70
2023-01-20T03:42:36.977Z,7.33
2023-01-20T03:45:25.537Z,6.12
2023-01-20T03:48:24.014Z,5.60
2023-01-20T03:50:59.152Z,2.80
2023-01-20T03:53:42.939Z,2.17
2023-01-20T03:56:51.206Z,2.30
2023-01-20T03:59:21.688Z,2.83
2023-01-20T04:01:50.254Z,4.40
2023-01-20T04:04:19.724Z,4.72
2023-01-20T04:06:50.316Z,3.50
2023-01-20T04:09:27.858Z,2.70
2023-01-20T04:11:55.759Z,2.52
2023-01-20T04:14:23.278Z,2.47
2023-01-20T04:16:57.723Z,11.60
2023-01-20T04:19:26.297Z,2.90
2023-01-20T04:22:10.994Z,2.10
2023-01-20T04:25:05.490Z,2.42
2023-01-20T04:27:33.149Z,2.40
2023-01-20T04:30:01.016Z,2.72
2023-01-20T04:32:28.846Z,2.60
2023-01-20T04:34:56.346Z,4.80
2023-01-20T04:37:26.577Z,6.30
2023-01-20T04:39:54.514Z,3.45
2023-01-20T04:42:22.135Z,3.47
2023-01-20T04:44:50.044Z,3.87
2023-01-20T04:47:18.134Z,3.60
2023-01-20T04:49:45.785Z,3.70
2023-01-20T04:52:14.343Z,3.90
2023-01-20T04:54:42.125Z,5.22
2023-01-20T04:57:09.922Z,5.10
2023-01-20T04:59:37.572Z,11.38
2023-01-20T05:02:05.262Z,6.22
2023-01-20T05:04:33.254Z,4.08
2023-01-20T05:07:00.849Z,4.72
2023-01-20T05:09:28.437Z,4.67
2023-01-20T05:11:55.904Z,6.20
2023-01-20T05:14:23.648Z,7.75
2023-01-20T05:16:51.249Z,7.17
2023-01-20T05:19:18.803Z,5.97
2023-01-20T05:21:46.704Z,5.12
2023-01-20T05:24:14.657Z,4.47
2023-01-20T05:26:43.244Z,6.22
2023-01-20T05:29:11.411Z,5.65
2023-01-20T05:31:40.996Z,7.20
2023-01-20T05:34:10.522Z,8.45
2023-01-20T05:36:38.309Z,7.35
2023-01-20T05:39:05.960Z,5.40
2023-01-20T05:41:33.637Z,4.03
2023-01-20T05:44:01.483Z,4.15
2023-01-20T05:46:29.296Z,4.92
2023-01-20T05:48:56.799Z,4.50
2023-01-20T05:51:24.527Z,4.35
2023-01-20T05:53:52.313Z,4.90
2023-01-20T05:56:20.005Z,6.65
2023-01-20T05:58:47.688Z,7.47
2023-01-20T06:01:15.465Z,7.95
2023-01-20T06:03:43.472Z,7.15
2023-01-20T06:06:14.177Z,6.08
2023-01-20T06:08:42.443Z,4.95
2023-01-20T06:11:11.257Z,5.75
2023-01-20T06:13:39.158Z,5.33
2023-01-20T06:16:07.691Z,4.35
2023-01-20T06:18:35.384Z,4.25
2023-01-20T06:21:03.063Z,4.05
2023-01-20T06:23:30.781Z,5.22
2023-01-20T06:26:07.261Z,5.42
2023-01-20T06:28:35.338Z,7.75
2023-01-20T06:31:10.172Z,7.50
2023-01-20T06:33:37.978Z,8.40
2023-01-20T06:36:08.357Z,9.08
2023-01-20T06:38:36.036Z,9.28
2023-01-20T06:41:07.239Z,10.53
2023-01-20T06:43:37.519Z,8.03
2023-01-20T06:46:08.019Z,7.87
2023-01-20T06:48:35.936Z,10.20
2023-01-20T06:51:10.810Z,12.85
2023-01-20T06:53:38.627Z,11.15
2023-01-20T06:56:07.153Z,7.92
2023-01-20T06:58:34.916Z,6.62
2023-01-20T07:01:13.865Z,5.47
2023-01-20T07:03:43.192Z,4.50
2023-01-20T07:06:39.773Z,5.70
2023-01-20T07:09:10.765Z,5.87
2023-01-20T07:11:39.162Z,5.60
2023-01-20T07:14:07.762Z,6.28
2023-01-20T07:16:35.522Z,6.92
2023-01-20T07:19:03.743Z,7.47
2023-01-20T07:21:31.660Z,6.62
2023-01-20T07:24:01.509Z,6.20
2023-01-20T07:26:30.046Z,6.05
2023-01-20T07:28:58.980Z,6.58
2023-01-20T07:31:28.559Z,7.03
2023-01-20T07:33:56.284Z,6.70
2023-01-20T07:36:24.537Z,6.47
2023-01-20T07:38:55.622Z,6.30
2023-01-20T07:41:23.860Z,7.12
2023-01-20T07:43:53.663Z,7.45
2023-01-20T07:46:23.421Z,7.95
2023-01-20T07:48:50.933Z,9.90
2023-01-20T07:51:18.920Z,9.85
2023-01-20T07:53:50.435Z,15.30
2023-01-20T07:56:24.776Z,10.75
2023-01-20T07:58:53.796Z,8.60
2023-01-20T08:01:28.507Z,6.67
2023-01-20T08:03:56.781Z,7.30
2023-01-20T08:06:25.875Z,6.55
2023-01-20T08:08:56.598Z,6.83
2023-01-20T08:11:24.336Z,6.22
2023-01-20T08:13:52.601Z,6.08
2023-01-20T08:16:20.797Z,7.55
2023-01-20T08:18:48.487Z,6.58
2023-01-20T08:21:24.409Z,4.97
2023-01-20T08:23:55.275Z,4.00
2023-01-20T08:26:27.763Z,3.25
2023-01-20T08:29:01.840Z,3.85
2023-01-20T08:31:29.697Z,3.67
2023-01-20T08:33:58.426Z,3.40
2023-01-20T08:36:30.415Z,4.03
2023-01-20T08:39:02.063Z,3.70
2023-01-20T08:41:36.698Z,3.70
2023-01-20T08:44:06.943Z,3.87
2023-01-20T08:46:39.160Z,4.37
2023-01-20T08:49:13.778Z,4.30
2023-01-20T08:51:42.918Z,4.12
2023-01-20T08:54:10.845Z,4.83
2023-01-20T08:56:52.233Z,5.25
2023-01-20T08:59:20.418Z,7.20
2023-01-20T09:01:48.147Z,6.55
2023-01-20T09:04:15.766Z,6.30
2023-01-20T09:06:49.657Z,5.50
2023-01-20T09:09:20.527Z,9.10
2023-01-20T09:11:51.649Z,6.90
2023-01-20T09:14:25.167Z,6.95
2023-01-20T09:16:53.068Z,6.62
2023-01-20T09:19:20.679Z,7.22
2023-01-20T09:21:48.704Z,6.15
2023-01-20T09:24:16.314Z,5.62
2023-01-20T09:26:44.777Z,5.70
2023-01-20T09:29:18.855Z,4.55
2023-01-20T09:31:57.202Z,5.47
2023-01-20T09:34:28.679Z,6.53
2023-01-20T09:37:18.684Z,8.28
2023-01-20T09:40:04.700Z,41.85
2023-01-20T09:43:24.140Z,17.98
2023-01-20T09:46:00.688Z,5.67
2023-01-20T09:49:28.941Z,5.58
2023-01-20T09:52:26.089Z,6.15
2023-01-20T09:55:04.922Z,6.97
2023-01-20T09:57:37.011Z,5.58
2023-01-20T10:00:16.777Z,5.70
2023-01-20T10:02:49.956Z,5.12
2023-01-20T10:05:23.237Z,5.30
2023-01-20T10:07:59.171Z,6.50
2023-01-20T10:10:44.011Z,5.85
2023-01-20T10:13:37.864Z,6.62
2023-01-20T10:16:11.565Z,6.47
2023-01-20T10:18:59.809Z,5.97
2023-01-20T10:21:49.799Z,11.65
2023-01-20T10:24:26.044Z,7.92
2023-01-20T10:27:03.550Z,7.95
2023-01-20T10:29:38.689Z,8.30
2023-01-20T10:32:23.647Z,7.53
2023-01-20T10:34:56.581Z,7.78
2023-01-20T10:37:24.672Z,6.97
2023-01-20T10:39:58.293Z,7.05
2023-01-20T10:42:27.991Z,8.23
2023-01-20T10:44:55.927Z,10.53
2023-01-20T10:47:56.291Z,10.13
2023-01-20T10:50:41.622Z,10.03
2023-01-20T10:53:26.146Z,11.25
2023-01-20T10:56:33.005Z,9.78
2023-01-20T10:59:14.294Z,10.48
2023-01-20T11:01:45.570Z,13.25
2023-01-20T11:04:18.049Z,17.92
2023-01-20T11:06:56.849Z,7.40
2023-01-20T11:09:34.691Z,3.33
2023-01-20T11:12:07.305Z,3.10
2023-01-20T11:14:35.396Z,3.60
2023-01-20T11:17:07.837Z,3.05
2023-01-20T11:19:55.079Z,1.75
2023-01-20T11:22:32.972Z,1.70
2023-01-20T11:25:03.546Z,1.47
2023-01-20T11:27:44.112Z,1.50
2023-01-20T11:30:29.591Z,2.15
2023-01-20T11:33:22.833Z,2.40
2023-01-20T11:36:06.890Z,3.03
2023-01-20T11:38:44.657Z,1.95
2023-01-20T11:41:30.647Z,1.85
2023-01-20T11:44:00.362Z,2.62
2023-01-20T11:46:33.581Z,2.47
2023-01-20T11:49:22.220Z,1.37
2023-01-20T11:51:56.186Z,2.60
2023-01-20T11:54:27.969Z,3.95
2023-01-20T11:57:04.250Z,4.80
2023-01-20T11:59:35.448Z,9.58
2023-01-20T12:02:14.772Z,3.42
2023-01-20T12:05:05.933Z,3.02
2023-01-20T12:07:46.354Z,4.58
2023-01-20T12:10:30.268Z,4.47
2023-01-20T12:13:09.623Z,13.38
2023-01-20T12:15:41.810Z,7.65
2023-01-20T12:18:38.130Z,6.33
2023-01-20T12:21:16.861Z,9.55
2023-01-20T12:24:14.389Z,8.05
2023-01-20T12:26:43.047Z,5.55
2023-01-20T12:29:19.176Z,6.08
2023-01-20T12:31:48.726Z,13.22
2023-01-20T12:34:27.799Z,7.78
2023-01-20T12:37:09.802Z,7.22
2023-01-20T12:40:16.048Z,8.10
2023-01-20T12:43:21.549Z,6.83
2023-01-20T12:46:18.825Z,7.60
2023-01-20T12:49:07.145Z,9.33
2023-01-20T12:52:01.553Z,9.18
2023-01-20T12:55:13.952Z,8.78
2023-01-20T12:58:17.432Z,13.80
2023-01-20T13:01:10.478Z,23.50
2023-01-20T13:03:43.366Z,27.35
2023-01-20T13:06:43.324Z,21.20
2023-01-20T13:09:22.540Z,14.93
2023-01-20T13:12:29.669Z,15.18
2023-01-20T13:15:36.278Z,15.63
2023-01-20T13:18:39.772Z,13.95
2023-01-20T13:21:18.005Z,9.35
2023-01-20T13:23:46.189Z,6.95
2023-01-20T13:26:15.043Z,5.80
2023-01-20T13:28:55.872Z,6.40
2023-01-20T13:31:43.663Z,12.07
2023-01-20T13:34:33.468Z,11.55
2023-01-20T13:37:15.218Z,12.78
2023-01-20T13:39:48.150Z,13.05
2023-01-20T13:42:42.849Z,13.85
2023-01-20T13:45:19.418Z,11.95
2023-01-20T13:48:02.135Z,11.85
2023-01-20T13:50:34.647Z,8.23
2023-01-20T13:53:07.455Z,8.10
2023-01-20T13:55:47.652Z,9.23
2023-01-20T13:58:22.707Z,20.37
2023-01-20T14:01:03.417Z,18.12
2023-01-20T14:03:36.164Z,21.30
2023-01-20T14:06:11.820Z,22.40
2023-01-20T14:08:43.575Z,24.92
2023-01-20T14:11:24.118Z,36.53
2023-01-20T14:14:01.397Z,37.13
2023-01-20T14:16:39.466Z,29.25
2023-01-20T14:19:35.803Z,29.52
2023-01-20T14:22:25.036Z,24.55
2023-01-20T14:24:59.507Z,21.52
2023-01-20T14:27:35.012Z,19.57
2023-01-20T14:30:23.260Z,17.92
2023-01-20T14:32:52.620Z,13.88
2023-01-20T14:35:32.125Z,8.68
2023-01-20T14:38:00.797Z,10.43
2023-01-20T14:40:35.869Z,10.28
2023-01-20T14:43:26.960Z,10.95
2023-01-20T14:45:55.024Z,10.93
2023-01-20T14:48:33.897Z,11.40
2023-01-20T14:50:55.584Z,12.85
2023-01-20T14:53:23.153Z,17.50
2023-01-20T14:56:06.979Z,12.73
2023-01-20T14:58:35.839Z,13.50
2023-01-20T15:01:06.879Z,14.35
2023-01-20T15:03:34.644Z,15.93
2023-01-20T15:06:17.303Z,22.75
2023-01-20T15:09:04.501Z,21.23
2023-01-20T15:11:21.963Z,21.75
2023-01-20T15:14:08.816Z,36.38
2023-01-20T15:16:48.819Z,34.03
2023-01-20T15:19:30.023Z,40.70
2023-01-20T15:22:20.102Z,36.03
2023-01-20T15:24:49.548Z,41.15
2023-01-20T15:27:31.086Z,42.93
2023-01-20T15:30:21.744Z,34.38
2023-01-20T15:32:51.167Z,20.75
2023-01-20T15:35:25.725Z,10.95
2023-01-20T15:37:54.966Z,4.45
2023-01-20T15:40:24.737Z,5.20
2023-01-20T15:42:52.912Z,13.22
2023-01-20T15:45:20.663Z,17.02
2023-01-20T15:47:49.239Z,14.55
2023-01-20T15:50:22.108Z,14.70
2023-01-20T15:52:50.606Z,16.60
2023-01-20T15:55:19.203Z,23.20
2023-01-20T15:57:50.876Z,15.90
2023-01-20T16:00:22.760Z,16.42
2023-01-20T16:02:50.667Z,19.52
2023-01-20T16:05:18.873Z,16.00
2023-01-20T16:07:48.548Z,17.75
2023-01-20T16:10:19.190Z,15.75
2023-01-20T16:12:47.880Z,27.55
2023-01-20T16:15:17.941Z,13.50
2023-01-20T16:17:45.811Z,4.78
2023-01-20T16:20:20.775Z,4.03
2023-01-20T16:22:48.955Z,2.37
2023-01-20T16:25:17.360Z,3.40
2023-01-20T16:27:44.929Z,3.90
2023-01-20T16:30:20.038Z,3.80
2023-01-20T16:32:48.009Z,3.83
2023-01-20T16:35:17.623Z,7.35
2023-01-20T16:37:47.118Z,21.60
2023-01-20T16:40:20.577Z,20.70
2023-01-20T16:42:48.832Z,16.57
2023-01-20T16:45:27.203Z,15.25
2023-01-20T16:47:55.655Z,16.75
2023-01-20T16:50:25.158Z,8.85
2023-01-20T16:52:53.140Z,7.53
2023-01-20T16:55:21.045Z,6.25
2023-01-20T16:57:48.560Z,5.03
2023-01-20T17:00:19.110Z,6.33
2023-01-20T17:02:52.785Z,16.25
2023-01-20T17:05:25.144Z,7.97
2023-01-20T17:07:56.259Z,13.95
2023-01-20T17:10:27.019Z,18.92
2023-01-20T17:12:56.676Z,11.48
2023-01-20T17:15:25.803Z,6.50
2023-01-20T17:17:57.553Z,6.92
2023-01-20T17:20:26.938Z,7.00
2023-01-20T17:22:55.065Z,5.53
2023-01-20T17:25:24.009Z,6.15
2023-01-20T17:27:51.686Z,3.10
2023-01-20T17:30:19.815Z,2.60
2023-01-20T17:32:48.368Z,3.30
2023-01-20T17:35:16.818Z,4.50
2023-01-20T17:37:44.921Z,7.28
2023-01-20T17:40:14.383Z,5.37
2023-01-20T17:42:43.517Z,5.20
2023-01-20T17:45:11.565Z,6.00
2023-01-20T17:47:39.434Z,7.60
2023-01-20T17:50:07.695Z,11.28
2023-01-20T17:52:35.382Z,13.70
2023-01-20T17:55:03.028Z,10.78
2023-01-20T17:57:32.087Z,8.50
2023-01-20T17:59:59.569Z,9.45
2023-01-20T18:02:27.054Z,10.68
2023-01-20T18:04:54.597Z,12.88
2023-01-20T18:07:22.200Z,15.72
2023-01-20T18:09:49.946Z,18.02
2023-01-20T18:12:17.702Z,18.82
2023-01-20T18:14:45.459Z,17.70
2023-01-20T18:17:13.123Z,18.37
2023-01-20T18:19:40.686Z,19.23
2023-01-20T18:22:09.848Z,18.07
2023-01-20T18:24:38.008Z,18.80
2023-01-20T18:27:06.274Z,19.23
2023-01-20T18:29:35.668Z,21.52
2023-01-20T18:32:03.621Z,26.57
2023-01-20T18:34:31.440Z,21.50
2023-01-20T18:36:59.047Z,24.30
2023-01-20T18:39:27.608Z,22.60
2023-01-20T18:41:55.264Z,21.20
2023-01-20T18:44:23.357Z,21.33
2023-01-20T18:46:51.056Z,24.43
2023-01-20T18:49:18.856Z,24.30
2023-01-20T18:51:46.630Z,24.05
2023-01-20T18:54:17.215Z,21.12
2023-01-20T18:56:45.015Z,20.25
2023-01-20T18:59:13.179Z,18.20
2023-01-20T19:01:42.145Z,17.85
2023-01-20T19:04:12.819Z,14.47
2023-01-20T19:06:44.127Z,14.73
2023-01-20T19:09:12.647Z,14.25
2023-01-20T19:11:41.961Z,12.63
2023-01-20T19:14:13.800Z,16.90
2023-01-20T19:16:43.559Z,17.50
2023-01-20T19:19:12.177Z,15.70
2023-01-20T19:21:39.853Z,13.28
2023-01-20T19:24:11.322Z,15.28
2023-01-20T19:26:39.156Z,15.50
2023-01-20T19:29:10.946Z,14.00
2023-01-20T19:31:40.233Z,12.95
2023-01-20T19:34:09.118Z,13.95
2023-01-20T19:36:37.343Z,11.73
2023-01-20T19:39:07.029Z,10.93
2023-01-20T19:41:35.482Z,13.45
2023-01-20T19:44:06.121Z,14.60
2023-01-20T19:46:36.819Z,13.18
2023-01-20T19:49:04.640Z,13.50
2023-01-20T19:51:32.589Z,11.38
2023-01-20T19:54:01.879Z,12.63
2023-01-20T19:56:33.380Z,15.23
2023-01-20T19:59:02.019Z,15.45
2023-01-20T20:01:33.421Z,13.90
2023-01-20T20:04:07.382Z,10.05
2023-01-20T20:06:38.598Z,4.60
2023-01-20T20:09:16.965Z,2.22
2023-01-20T20:11:44.695Z,2.10
2023-01-20T20:14:15.932Z,1.40
2023-01-20T20:16:43.519Z,1.40
2023-01-20T20:19:15.525Z,1.22
2023-01-20T20:21:43.686Z,1.10
2023-01-20T20:24:13.669Z,1.50
2023-01-20T20:26:42.730Z,1.47
2023-01-20T20:29:11.567Z,1.70
2023-01-20T20:31:40.303Z,1.30
2023-01-20T20:34:13.916Z,1.50
2023-01-20T20:36:41.698Z,1.50
2023-01-20T20:39:16.109Z,3.42
2023-01-20T20:41:44.434Z,4.10
2023-01-20T20:44:12.664Z,3.90
2023-01-20T20:46:40.755Z,3.10
2023-01-20T20:49:18.594Z,2.98
2023-01-20T20:51:46.322Z,1.50
2023-01-20T20:54:16.003Z,1.40
2023-01-20T20:56:44.662Z,0.85
2023-01-20T20:59:12.720Z,1.10
2023-01-20T21:01:40.679Z,0.93
2023-01-20T21:04:08.657Z,1.02
2023-01-20T21:06:36.249Z,0.90
2023-01-20T21:09:03.948Z,0.90
2023-01-20T21:11:32.357Z,1.25
2023-01-20T21:14:00.438Z,1.20
2023-01-20T21:16:28.241Z,1.42
2023-01-20T21:18:58.758Z,1.90
2023-01-20T21:21:28.333Z,1.40
2023-01-20T21:23:58.540Z,1.07
2023-01-20T21:26:30.456Z,1.20
2023-01-20T21:29:00.849Z,1.25
2023-01-20T21:31:28.739Z,1.37
2023-01-20T21:34:00.248Z,1.22
2023-01-20T21:36:29.786Z,1.30
2023-01-20T21:38:59.021Z,1.42
2023-01-20T21:41:26.830Z,1.55
2023-01-20T21:44:13.219Z,1.12
2023-01-20T21:46:41.393Z,0.90
2023-01-20T21:49:28.002Z,0.80
2023-01-20T21:52:15.708Z,1.00
2023-01-20T21:54:44.447Z,1.10
2023-01-20T21:57:12.329Z,1.22
2023-01-20T21:59:40.006Z,1.40
2023-01-20T22:02:08.101Z,1.10
2023-01-20T22:04:35.567Z,1.32
2023-01-20T22:07:03.254Z,1.50
2023-01-20T22:09:31.052Z,2.05
2023-01-20T22:11:58.966Z,2.22
2023-01-20T22:14:26.603Z,1.50
2023-01-20T22:16:54.435Z,1.60
2023-01-20T22:19:22.106Z,1.65
2023-01-20T22:21:49.768Z,1.72
2023-01-20T22:24:18.147Z,2.30
2023-01-20T22:26:48.228Z,2.30
2023-01-20T22:29:17.142Z,1.60
2023-01-20T22:31:46.154Z,1.05
2023-01-20T22:34:13.874Z,1.75
2023-01-20T22:36:41.799Z,0.90
2023-01-20T22:39:12.082Z,1.15
2023-01-20T22:41:40.794Z,1.65
2023-01-20T22:44:09.083Z,1.60
2023-01-20T22:46:36.970Z,1.00
2023-01-20T22:49:04.674Z,1.02
2023-01-20T22:51:32.428Z,1.65
2023-01-20T22:54:01.401Z,1.00
2023-01-20T22:56:32.054Z,1.90
2023-01-20T22:59:00.292Z,1.30
2023-01-20T23:01:32.130Z,1.50
2023-01-20T23:04:03.066Z,0.88
2023-01-20T23:06:34.256Z,3.37
2023-01-20T23:09:06.652Z,2.67
2023-01-20T23:11:37.053Z,3.40
2023-01-20T23:14:06.017Z,2.40
2023-01-20T23:16:34.296Z,2.77
2023-01-20T23:19:01.957Z,2.15
2023-01-20T23:21:29.852Z,2.10
2023-01-20T23:23:57.745Z,2.77
2023-01-20T23:26:29.003Z,3.42
2023-01-20T23:28:57.080Z,4.10
2023-01-20T23:31:27.717Z,3.20
2023-01-20T23:33:55.462Z,2.72
2023-01-20T23:36:25.530Z,2.45
2023-01-20T23:38:54.499Z,2.22
2023-01-20T23:41:22.607Z,1.32
2023-01-20T23:43:50.747Z,0.85
2023-01-20T23:46:18.800Z,1.00
2023-01-20T23:48:47.050Z,1.12
2023-01-20T23:51:15.251Z,0.72
2023-01-20T23:53:43.317Z,0.70
2023-01-20T23:56:17.984Z,1.00
2023-01-20T23:58:46.560Z,1.25
